createdAt,value
2023-05-10T00:00:23.780Z,10.31
2023-05-10T00:00:55.950Z,10.31
2023-05-10T00:01:30.760Z,10.32
2023-05-10T00:02:03.494Z,10.31
2023-05-10T00:02:36.032Z,10.30
2023-05-10T00:03:10.968Z,10.31
2023-05-10T00:03:43.409Z,10.30
2023-05-10T00:04:15.728Z,10.30
2023-05-10T00:04:50.502Z,10.31
2023-05-10T00:05:22.919Z,10.29
2023-05-10T00:05:55.119Z,10.31
2023-05-10T00:06:30.137Z,10.30
2023-05-10T00:07:04.944Z,10.30
2023-05-10T00:07:37.102Z,10.30
2023-05-10T00:08:12.011Z,10.29
2023-05-10T00:08:44.175Z,10.29
2023-05-10T00:09:16.617Z,10.29
2023-05-10T00:09:51.336Z,10.29
2023-05-10T00:10:23.675Z,10.29
2023-05-10T00:10:55.963Z,10.30
2023-05-10T00:11:30.883Z,10.30
2023-05-10T00:12:03.092Z,10.30
2023-05-10T00:12:35.318Z,10.30
2023-05-10T00:13:10.391Z,10.28
2023-05-10T00:13:42.616Z,10.29
2023-05-10T00:14:14.762Z,10.29
2023-05-10T00:14:49.484Z,10.29
2023-05-10T00:15:21.758Z,10.27
2023-05-10T00:15:54.308Z,10.29
2023-05-10T00:16:29.170Z,10.28
2023-05-10T00:17:01.780Z,10.29
2023-05-10T00:17:34.196Z,10.29
2023-05-10T00:18:09.070Z,10.29
2023-05-10T00:18:41.529Z,10.29
2023-05-10T00:19:13.813Z,10.30
2023-05-10T00:19:49.325Z,10.30
2023-05-10T00:20:21.628Z,10.28
2023-05-10T00:20:53.930Z,10.28
2023-05-10T00:21:29.462Z,10.30
2023-05-10T00:22:04.344Z,10.29
2023-05-10T00:22:36.610Z,10.30
2023-05-10T00:23:11.428Z,10.29
2023-05-10T00:23:43.597Z,10.30
2023-05-10T00:24:15.837Z,10.31
2023-05-10T00:24:50.661Z,10.30
2023-05-10T00:25:22.873Z,10.31
2023-05-10T00:25:55.064Z,10.32
2023-05-10T00:26:27.287Z,10.31
2023-05-10T00:27:05.090Z,10.31
2023-05-10T00:27:37.342Z,10.29
2023-05-10T00:28:09.561Z,10.29
2023-05-10T00:28:46.157Z,10.28
2023-05-10T00:29:18.408Z,10.28
2023-05-10T00:29:50.927Z,10.27
2023-05-10T00:30:25.955Z,10.27
2023-05-10T00:30:58.236Z,10.27
2023-05-10T00:31:30.464Z,10.28
2023-05-10T00:32:06.153Z,10.28
2023-05-10T00:32:38.367Z,10.28
2023-05-10T00:33:10.944Z,10.28
2023-05-10T00:33:45.713Z,10.29
2023-05-10T00:34:17.881Z,10.28
2023-05-10T00:34:50.697Z,10.28
2023-05-10T00:35:25.486Z,10.28
2023-05-10T00:35:57.774Z,10.29
2023-05-10T00:36:29.994Z,10.29
2023-05-10T00:37:07.281Z,10.30
2023-05-10T00:37:39.450Z,10.29
2023-05-10T00:38:11.692Z,10.29
2023-05-10T00:38:46.957Z,10.30
2023-05-10T00:39:19.279Z,10.31
2023-05-10T00:39:51.483Z,10.32
2023-05-10T00:40:26.442Z,10.32
2023-05-10T00:41:03.794Z,10.30
2023-05-10T00:41:38.226Z,10.30
2023-05-10T00:42:12.086Z,10.30
2023-05-10T00:42:46.872Z,10.31
2023-05-10T00:43:19.090Z,10.30
2023-05-10T00:43:52.956Z,10.29
2023-05-10T00:44:27.792Z,10.30
2023-05-10T00:44:59.997Z,10.30
2023-05-10T00:45:33.772Z,10.30
2023-05-10T00:46:08.852Z,10.32
2023-05-10T00:46:41.778Z,10.32
2023-05-10T00:47:14.186Z,10.32
2023-05-10T00:47:49.654Z,10.33
2023-05-10T00:48:23.374Z,10.32
2023-05-10T00:48:55.610Z,10.34
2023-05-10T00:49:30.645Z,10.35
2023-05-10T00:50:03.348Z,10.35
2023-05-10T00:50:36.101Z,10.34
2023-05-10T00:51:10.900Z,10.35
2023-05-10T00:51:45.667Z,10.33
2023-05-10T00:52:20.864Z,10.35
2023-05-10T00:52:56.245Z,10.35
2023-05-10T00:53:28.916Z,10.33
2023-05-10T00:54:01.499Z,10.35
2023-05-10T00:54:36.296Z,10.35
2023-05-10T00:55:10.856Z,10.36
2023-05-10T00:55:43.555Z,10.36
2023-05-10T00:56:18.962Z,10.37
2023-05-10T00:56:51.251Z,10.36
2023-05-10T00:57:23.849Z,10.36
2023-05-10T00:57:58.976Z,10.37
2023-05-10T00:58:32.143Z,10.37
2023-05-10T00:59:04.603Z,10.38
2023-05-10T00:59:39.758Z,10.39
2023-05-10T01:00:13.666Z,10.39
2023-05-10T01:00:47.615Z,10.39
2023-05-10T01:01:23.436Z,10.39
2023-05-10T01:01:57.180Z,10.37
2023-05-10T01:02:29.464Z,10.39
2023-05-10T01:03:06.663Z,10.37
2023-05-10T01:03:40.253Z,10.38
2023-05-10T01:04:13.902Z,10.37
2023-05-10T01:04:48.940Z,10.37
2023-05-10T01:05:21.390Z,10.36
2023-05-10T01:05:53.731Z,10.37
2023-05-10T01:06:28.943Z,10.36
2023-05-10T01:07:01.133Z,10.35
2023-05-10T01:07:35.872Z,10.35
2023-05-10T01:08:12.480Z,10.33
2023-05-10T01:08:44.736Z,10.35
2023-05-10T01:09:18.302Z,10.33
2023-05-10T01:09:53.233Z,10.34
2023-05-10T01:10:25.538Z,10.33
2023-05-10T01:10:58.291Z,10.34
2023-05-10T01:11:33.241Z,10.32
2023-05-10T01:12:08.111Z,10.33
2023-05-10T01:12:43.488Z,10.32
2023-05-10T01:13:27.368Z,10.31
2023-05-10T01:14:00.144Z,10.28
2023-05-10T01:14:32.366Z,10.29
2023-05-10T01:15:09.264Z,10.29
2023-05-10T01:15:42.031Z,10.29
2023-05-10T01:16:17.700Z,10.30
2023-05-10T01:16:51.083Z,10.30
2023-05-10T01:17:24.203Z,10.30
2023-05-10T01:18:00.408Z,10.31
2023-05-10T01:18:34.913Z,10.31
2023-05-10T01:19:13.215Z,10.30
2023-05-10T01:19:48.183Z,10.28
2023-05-10T01:20:20.448Z,10.29
2023-05-10T01:21:05.842Z,10.29
2023-05-10T01:21:47.315Z,10.28
2023-05-10T01:22:46.499Z,10.25
2023-05-10T01:23:39.901Z,10.21
2023-05-10T01:24:33.536Z,10.19
2023-05-10T01:25:56.180Z,10.14
2023-05-10T01:26:59.578Z,10.12
2023-05-10T01:28:05.137Z,10.10
2023-05-10T01:29:13.006Z,10.10
2023-05-10T01:30:17.592Z,10.07
2023-05-10T01:31:08.445Z,10.06
2023-05-10T01:32:15.605Z,10.08
2023-05-10T01:32:54.104Z,10.06
2023-05-10T01:33:32.873Z,10.08
2023-05-10T01:34:10.624Z,10.08
2023-05-10T01:34:49.376Z,10.09
2023-05-10T01:35:38.434Z,10.09
2023-05-10T01:36:17.844Z,10.06
2023-05-10T01:36:54.233Z,10.08
2023-05-10T01:37:37.341Z,10.08
2023-05-10T01:38:16.398Z,10.08
2023-05-10T01:38:53.077Z,10.07
2023-05-10T01:39:32.869Z,10.08
2023-05-10T01:40:14.811Z,10.05
2023-05-10T01:41:04.686Z,10.03
2023-05-10T01:41:43.368Z,10.01
2023-05-10T01:42:21.344Z,10.00
2023-05-10T01:43:03.812Z,10.01
2023-05-10T01:43:44.207Z,9.99
2023-05-10T01:44:19.451Z,9.91
2023-05-10T01:45:06.238Z,9.94
2023-05-10T01:45:43.072Z,9.91
2023-05-10T01:46:19.071Z,9.93
2023-05-10T01:47:05.381Z,9.92
2023-05-10T01:47:43.125Z,9.90
2023-05-10T01:48:18.968Z,9.91
2023-05-10T01:48:55.536Z,9.91
2023-05-10T01:49:32.386Z,9.92
2023-05-10T01:50:10.258Z,9.91
2023-05-10T01:50:46.661Z,9.89
2023-05-10T01:51:30.462Z,9.91
2023-05-10T01:52:21.368Z,9.88
2023-05-10T01:52:56.718Z,9.87
2023-05-10T01:53:30.367Z,9.87
2023-05-10T01:54:08.573Z,9.88
2023-05-10T01:54:46.374Z,9.87
2023-05-10T01:55:22.718Z,9.88
2023-05-10T01:56:00.289Z,9.89
2023-05-10T01:56:34.541Z,9.87
2023-05-10T01:57:09.969Z,9.89
2023-05-10T01:57:46.009Z,9.89
2023-05-10T01:58:25.109Z,9.89
2023-05-10T01:58:58.495Z,9.88
2023-05-10T01:59:37.367Z,9.88
2023-05-10T02:00:14.646Z,9.87
2023-05-10T02:00:50.712Z,9.86
2023-05-10T02:01:24.067Z,9.86
2023-05-10T02:02:04.624Z,9.86
2023-05-10T02:02:41.002Z,9.84
2023-05-10T02:03:15.027Z,9.84
2023-05-10T02:03:51.582Z,9.85
2023-05-10T02:04:24.943Z,9.85
2023-05-10T02:04:59.616Z,9.85
2023-05-10T02:05:36.779Z,9.84
2023-05-10T02:06:11.905Z,9.84
2023-05-10T02:06:46.415Z,9.83
2023-05-10T02:07:22.133Z,9.84
2023-05-10T02:07:55.331Z,9.83
2023-05-10T02:08:28.513Z,9.83
2023-05-10T02:09:05.215Z,9.84
2023-05-10T02:09:38.428Z,9.82
2023-05-10T02:10:12.545Z,9.83
2023-05-10T02:10:49.409Z,9.83
2023-05-10T02:11:22.665Z,9.82
2023-05-10T02:11:55.758Z,9.82
2023-05-10T02:12:30.165Z,9.83
2023-05-10T02:13:07.344Z,9.82
2023-05-10T02:13:41.314Z,9.81
2023-05-10T02:14:14.624Z,9.82
2023-05-10T02:14:50.721Z,9.80
2023-05-10T02:15:25.984Z,9.79
2023-05-10T02:15:58.738Z,9.78
2023-05-10T02:16:34.651Z,9.78
2023-05-10T02:17:10.878Z,9.78
2023-05-10T02:17:44.541Z,9.77
2023-05-10T02:18:20.737Z,9.76
2023-05-10T02:18:54.143Z,9.75
2023-05-10T02:19:27.756Z,9.77
2023-05-10T02:20:05.689Z,9.75
2023-05-10T02:20:39.805Z,9.76
2023-05-10T02:21:13.711Z,9.76
2023-05-10T02:21:49.642Z,9.76
2023-05-10T02:22:23.600Z,9.75
2023-05-10T02:22:57.403Z,9.76
2023-05-10T02:23:33.290Z,9.76
2023-05-10T02:24:06.750Z,9.76
2023-05-10T02:24:41.095Z,9.75
2023-05-10T02:25:17.922Z,9.76
2023-05-10T02:25:52.482Z,9.76
2023-05-10T02:26:28.185Z,9.76
2023-05-10T02:27:04.396Z,9.75
2023-05-10T02:27:38.049Z,9.75
2023-05-10T02:28:12.737Z,9.75
2023-05-10T02:28:48.403Z,9.75
2023-05-10T02:29:21.633Z,9.74
2023-05-10T02:29:54.426Z,9.76
2023-05-10T02:30:29.515Z,9.76
2023-05-10T02:31:04.919Z,9.76
2023-05-10T02:31:39.997Z,9.76
2023-05-10T02:32:16.338Z,9.75
2023-05-10T02:32:52.951Z,9.75
2023-05-10T02:33:26.927Z,9.75
2023-05-10T02:34:00.168Z,9.75
2023-05-10T02:34:35.697Z,9.75
2023-05-10T02:35:09.675Z,9.75
2023-05-10T02:35:42.842Z,9.75
2023-05-10T02:36:19.070Z,9.76
2023-05-10T02:36:52.500Z,9.75
2023-05-10T02:37:26.769Z,9.76
2023-05-10T02:38:03.046Z,9.77
2023-05-10T02:38:37.724Z,9.76
2023-05-10T02:39:13.861Z,9.77
2023-05-10T02:39:49.872Z,9.75
2023-05-10T02:40:26.791Z,9.75
2023-05-10T02:41:01.144Z,9.74
2023-05-10T02:41:36.953Z,9.76
2023-05-10T02:42:09.971Z,9.75
2023-05-10T02:42:45.080Z,9.76
2023-05-10T02:43:22.260Z,9.77
2023-05-10T02:43:58.440Z,9.77
2023-05-10T02:44:32.314Z,9.77
2023-05-10T02:45:12.038Z,9.79
2023-05-10T02:45:48.315Z,9.77
2023-05-10T02:46:20.869Z,9.79
2023-05-10T02:46:57.151Z,9.79
2023-05-10T02:47:32.546Z,9.80
2023-05-10T02:48:05.397Z,9.80
2023-05-10T02:48:40.297Z,9.80
2023-05-10T02:49:12.749Z,9.81
2023-05-10T02:49:45.000Z,9.81
2023-05-10T02:50:19.874Z,9.82
2023-05-10T02:50:56.204Z,9.83
2023-05-10T02:51:36.238Z,9.82
2023-05-10T02:52:10.272Z,9.82
2023-05-10T02:52:47.577Z,9.83
2023-05-10T02:53:34.130Z,9.83
2023-05-10T02:54:13.281Z,9.81
2023-05-10T02:54:48.624Z,9.81
2023-05-10T02:55:26.280Z,9.82
2023-05-10T02:56:02.001Z,9.83
2023-05-10T02:56:37.647Z,9.84
2023-05-10T02:57:12.453Z,9.84
2023-05-10T02:57:54.998Z,9.84
2023-05-10T02:58:27.777Z,9.83
2023-05-10T02:59:00.065Z,9.85
2023-05-10T02:59:35.469Z,9.86
2023-05-10T03:00:09.657Z,9.89
2023-05-10T03:00:42.008Z,9.90
2023-05-10T03:01:16.796Z,9.92
2023-05-10T03:01:49.256Z,9.94
2023-05-10T03:02:22.298Z,9.95
2023-05-10T03:02:57.491Z,9.95
2023-05-10T03:03:33.255Z,9.97
2023-05-10T03:04:05.745Z,9.98
2023-05-10T03:04:38.025Z,10.01
2023-05-10T03:05:12.859Z,10.02
2023-05-10T03:05:45.165Z,10.02
2023-05-10T03:06:17.554Z,10.03
2023-05-10T03:06:49.949Z,10.04
2023-05-10T03:07:24.776Z,10.04
2023-05-10T03:07:57.569Z,10.07
2023-05-10T03:08:30.631Z,10.06
2023-05-10T03:09:06.908Z,10.06
2023-05-10T03:09:39.177Z,10.07
2023-05-10T03:10:12.191Z,10.07
2023-05-10T03:10:59.511Z,10.09
2023-05-10T03:11:43.451Z,10.05
2023-05-10T03:12:25.380Z,10.05
2023-05-10T03:13:11.637Z,10.03
2023-05-10T03:13:57.700Z,10.03
2023-05-10T03:14:43.675Z,10.03
2023-05-10T03:15:26.230Z,10.06
2023-05-10T03:16:03.242Z,10.04
2023-05-10T03:16:44.797Z,10.07
2023-05-10T03:17:26.512Z,10.07
2023-05-10T03:18:06.780Z,10.07
2023-05-10T03:18:48.058Z,10.09
2023-05-10T03:19:27.575Z,10.07
2023-05-10T03:20:05.527Z,10.07
2023-05-10T03:20:45.368Z,10.07
2023-05-10T03:21:20.092Z,10.08
2023-05-10T03:21:58.331Z,10.09
2023-05-10T03:22:36.906Z,10.11
2023-05-10T03:23:14.960Z,10.11
2023-05-10T03:23:53.738Z,10.12
2023-05-10T03:24:32.070Z,10.13
2023-05-10T03:25:07.969Z,10.13
2023-05-10T03:25:42.474Z,10.14
2023-05-10T03:26:24.273Z,10.14
2023-05-10T03:27:00.468Z,10.14
2023-05-10T03:27:33.604Z,10.15
2023-05-10T03:28:09.981Z,10.17
2023-05-10T03:28:43.100Z,10.18
2023-05-10T03:29:16.132Z,10.19
2023-05-10T03:29:52.377Z,10.20
2023-05-10T03:30:25.613Z,10.21
2023-05-10T03:30:58.941Z,10.21
2023-05-10T03:31:34.022Z,10.21
2023-05-10T03:32:06.487Z,10.21
2023-05-10T03:32:38.968Z,10.23
2023-05-10T03:33:16.697Z,10.24
2023-05-10T03:33:52.992Z,10.22
2023-05-10T03:34:31.978Z,10.21
2023-05-10T03:35:11.349Z,10.26
2023-05-10T03:35:45.319Z,10.24
2023-05-10T03:36:20.255Z,10.28
2023-05-10T03:36:52.623Z,10.28
2023-05-10T03:37:25.186Z,10.29
2023-05-10T03:37:59.927Z,10.30
2023-05-10T03:38:32.180Z,10.31
2023-05-10T03:39:04.952Z,10.33
2023-05-10T03:39:39.788Z,10.36
2023-05-10T03:40:14.404Z,10.35
2023-05-10T03:40:51.159Z,10.36
2023-05-10T03:41:23.545Z,10.37
2023-05-10T03:41:55.729Z,10.39
2023-05-10T03:42:30.676Z,10.41
2023-05-10T03:43:02.830Z,10.42
2023-05-10T03:43:35.216Z,10.41
2023-05-10T03:44:10.285Z,10.45
2023-05-10T03:44:42.607Z,10.44
2023-05-10T03:45:14.941Z,10.46
2023-05-10T03:45:49.735Z,10.48
2023-05-10T03:46:22.038Z,10.49
2023-05-10T03:46:54.438Z,10.51
2023-05-10T03:47:26.636Z,10.52
2023-05-10T03:48:01.747Z,10.53
2023-05-10T03:48:36.649Z,10.54
2023-05-10T03:49:08.783Z,10.54
2023-05-10T03:49:45.239Z,10.54
2023-05-10T03:50:18.589Z,10.54
2023-05-10T03:50:51.005Z,10.55
2023-05-10T03:51:29.180Z,10.57
2023-05-10T03:52:01.357Z,10.57
2023-05-10T03:52:33.606Z,10.56
2023-05-10T03:53:08.367Z,10.59
2023-05-10T03:53:40.542Z,10.59
2023-05-10T03:54:13.013Z,10.59
2023-05-10T03:54:47.739Z,10.59
2023-05-10T03:55:20.134Z,10.61
2023-05-10T03:55:52.323Z,10.62
2023-05-10T03:56:27.085Z,10.63
2023-05-10T03:56:59.985Z,10.64
2023-05-10T03:57:32.652Z,10.66
2023-05-10T03:58:08.158Z,10.65
2023-05-10T03:58:40.389Z,10.65
2023-05-10T03:59:12.686Z,10.66
2023-05-10T03:59:47.481Z,10.66
2023-05-10T04:00:20.198Z,10.66
2023-05-10T04:00:56.532Z,10.66
2023-05-10T04:01:31.289Z,10.67
2023-05-10T04:02:04.034Z,10.67
2023-05-10T04:02:36.456Z,10.69
2023-05-10T04:03:11.338Z,10.68
2023-05-10T04:03:47.099Z,10.68
2023-05-10T04:04:22.977Z,10.68
2023-05-10T04:04:55.893Z,10.68
2023-05-10T04:05:28.054Z,10.68
2023-05-10T04:06:01.272Z,10.70
2023-05-10T04:06:36.414Z,10.70
2023-05-10T04:07:08.719Z,10.70
2023-05-10T04:07:40.906Z,10.70
2023-05-10T04:08:13.134Z,10.71
2023-05-10T04:08:47.858Z,10.70
2023-05-10T04:09:20.116Z,10.72
2023-05-10T04:09:52.411Z,10.74
2023-05-10T04:10:27.216Z,10.74
2023-05-10T04:11:07.191Z,10.73
2023-05-10T04:11:42.057Z,10.74
2023-05-10T04:12:14.328Z,10.74
2023-05-10T04:12:46.607Z,10.76
2023-05-10T04:13:21.908Z,10.77
2023-05-10T04:13:54.591Z,10.78
2023-05-10T04:14:26.831Z,10.80
2023-05-10T04:15:02.489Z,10.82
2023-05-10T04:15:34.918Z,10.81
2023-05-10T04:16:07.508Z,10.83
2023-05-10T04:16:42.316Z,10.83
2023-05-10T04:17:14.556Z,10.83
2023-05-10T04:17:47.051Z,10.82
2023-05-10T04:18:21.813Z,10.83
2023-05-10T04:18:56.576Z,10.82
2023-05-10T04:19:30.827Z,10.82
2023-05-10T04:20:05.819Z,10.81
2023-05-10T04:20:38.121Z,10.83
2023-05-10T04:21:15.993Z,10.83
2023-05-10T04:21:48.135Z,10.82
2023-05-10T04:22:20.326Z,10.82
2023-05-10T04:22:55.063Z,10.81
2023-05-10T04:23:28.197Z,10.81
2023-05-10T04:24:00.334Z,10.80
2023-05-10T04:24:35.036Z,10.78
2023-05-10T04:25:08.466Z,10.78
2023-05-10T04:25:40.816Z,10.76
2023-05-10T04:26:15.646Z,10.77
2023-05-10T04:26:47.830Z,10.76
2023-05-10T04:27:19.961Z,10.75
2023-05-10T04:27:55.575Z,10.76
2023-05-10T04:28:28.613Z,10.75
2023-05-10T04:29:01.007Z,10.74
2023-05-10T04:29:35.750Z,10.74
2023-05-10T04:30:09.375Z,10.75
2023-05-10T04:30:41.738Z,10.75
2023-05-10T04:31:16.629Z,10.75
2023-05-10T04:31:50.037Z,10.76
2023-05-10T04:32:22.289Z,10.77
2023-05-10T04:32:57.097Z,10.77
2023-05-10T04:33:29.211Z,10.76
2023-05-10T04:34:06.844Z,10.76
2023-05-10T04:34:39.098Z,10.74
2023-05-10T04:35:16.008Z,10.74
2023-05-10T04:35:48.190Z,10.73
2023-05-10T04:36:20.346Z,10.73
2023-05-10T04:36:55.119Z,10.72
2023-05-10T04:37:27.363Z,10.71
2023-05-10T04:37:59.485Z,10.71
2023-05-10T04:38:34.320Z,10.69
2023-05-10T04:39:06.648Z,10.68
2023-05-10T04:39:40.282Z,10.69
2023-05-10T04:40:17.195Z,10.69
2023-05-10T04:40:49.544Z,10.68
2023-05-10T04:41:21.838Z,10.69
2023-05-10T04:41:56.782Z,10.68
2023-05-10T04:42:29.070Z,10.67
2023-05-10T04:43:01.505Z,10.67
2023-05-10T04:43:36.501Z,10.69
2023-05-10T04:44:08.661Z,10.68
2023-05-10T04:44:40.831Z,10.70
2023-05-10T04:45:15.792Z,10.71
2023-05-10T04:45:48.163Z,10.71
2023-05-10T04:46:20.462Z,10.72
2023-05-10T04:46:55.308Z,10.74
2023-05-10T04:47:27.589Z,10.73
2023-05-10T04:47:59.837Z,10.74
2023-05-10T04:48:34.918Z,10.77
2023-05-10T04:49:09.647Z,10.77
2023-05-10T04:49:41.786Z,10.77
2023-05-10T04:50:16.766Z,10.77
2023-05-10T04:50:49.093Z,10.79
2023-05-10T04:51:21.730Z,10.80
2023-05-10T04:51:56.557Z,10.81
2023-05-10T04:52:28.813Z,10.80
2023-05-10T04:53:01.085Z,10.81
2023-05-10T04:53:36.027Z,10.81
2023-05-10T04:54:08.308Z,10.80
2023-05-10T04:54:40.513Z,10.81
2023-05-10T04:55:15.317Z,10.80
2023-05-10T04:55:47.907Z,10.80
2023-05-10T04:56:20.106Z,10.81
2023-05-10T04:56:54.931Z,10.81
2023-05-10T04:57:27.289Z,10.82
2023-05-10T04:58:00.239Z,10.83
2023-05-10T04:58:34.979Z,10.83
2023-05-10T04:59:07.195Z,10.85
2023-05-10T04:59:39.440Z,10.84
2023-05-10T05:00:15.729Z,10.83
2023-05-10T05:00:48.080Z,10.85
2023-05-10T05:01:20.266Z,10.86
2023-05-10T05:01:55.056Z,10.87
2023-05-10T05:02:27.509Z,10.87
2023-05-10T05:02:59.861Z,10.87
2023-05-10T05:03:34.854Z,10.88
2023-05-10T05:04:09.655Z,10.90
2023-05-10T05:04:44.429Z,10.91
2023-05-10T05:05:16.791Z,10.93
2023-05-10T05:05:49.206Z,10.93
2023-05-10T05:06:25.974Z,10.95
2023-05-10T05:06:58.301Z,10.96
2023-05-10T05:07:31.816Z,10.97
2023-05-10T05:08:07.519Z,10.97
2023-05-10T05:08:39.693Z,10.99
2023-05-10T05:09:11.839Z,11.01
2023-05-10T05:09:46.551Z,11.02
2023-05-10T05:10:19.140Z,11.04
2023-05-10T05:10:52.401Z,11.07
2023-05-10T05:11:27.217Z,11.07
2023-05-10T05:11:59.472Z,11.08
2023-05-10T05:12:31.667Z,11.09
2023-05-10T05:13:06.493Z,11.11
2023-05-10T05:13:38.879Z,11.11
2023-05-10T05:14:13.600Z,11.13
2023-05-10T05:14:45.729Z,11.14
2023-05-10T05:15:18.234Z,11.15
2023-05-10T05:15:52.974Z,11.17
2023-05-10T05:16:25.258Z,11.17
2023-05-10T05:17:00.044Z,11.20
2023-05-10T05:17:32.720Z,11.20
2023-05-10T05:18:05.391Z,11.22
2023-05-10T05:18:40.241Z,11.22
2023-05-10T05:19:15.500Z,11.27
2023-05-10T05:19:47.684Z,11.28
2023-05-10T05:20:22.717Z,11.30
2023-05-10T05:20:54.895Z,11.29
2023-05-10T05:21:28.276Z,11.31
2023-05-10T05:22:03.122Z,11.31
2023-05-10T05:22:35.335Z,11.32
2023-05-10T05:23:07.500Z,11.32
2023-05-10T05:23:42.244Z,11.33
2023-05-10T05:24:14.423Z,11.33
2023-05-10T05:24:49.509Z,11.32
2023-05-10T05:25:21.791Z,11.33
2023-05-10T05:25:53.988Z,11.34
2023-05-10T05:26:28.945Z,11.34
2023-05-10T05:27:02.014Z,11.34
2023-05-10T05:27:34.312Z,11.35
2023-05-10T05:28:09.157Z,11.33
2023-05-10T05:28:41.329Z,11.33
2023-05-10T05:29:13.515Z,11.36
2023-05-10T05:29:48.234Z,11.36
2023-05-10T05:30:20.618Z,11.36
2023-05-10T05:30:52.897Z,11.38
2023-05-10T05:31:27.679Z,11.39
2023-05-10T05:32:00.039Z,11.39
2023-05-10T05:32:32.407Z,11.41
2023-05-10T05:33:07.568Z,11.39
2023-05-10T05:33:39.815Z,11.40
2023-05-10T05:34:14.611Z,11.41
2023-05-10T05:34:49.593Z,11.39
2023-05-10T05:35:21.992Z,11.39
2023-05-10T05:35:54.273Z,11.40
2023-05-10T05:36:29.075Z,11.39
2023-05-10T05:37:01.469Z,11.39
2023-05-10T05:37:33.766Z,11.40
2023-05-10T05:38:08.608Z,11.40
2023-05-10T05:38:41.475Z,11.40
2023-05-10T05:39:13.701Z,11.42
2023-05-10T05:39:49.348Z,11.44
2023-05-10T05:40:21.678Z,11.45
2023-05-10T05:40:53.961Z,11.46
2023-05-10T05:41:28.752Z,11.48
2023-05-10T05:42:00.975Z,11.49
2023-05-10T05:42:33.457Z,11.50
2023-05-10T05:43:08.269Z,11.51
2023-05-10T05:43:40.557Z,11.53
2023-05-10T05:44:12.839Z,11.55
2023-05-10T05:44:47.705Z,11.56
2023-05-10T05:45:20.083Z,11.57
2023-05-10T05:45:56.196Z,11.59
2023-05-10T05:46:28.487Z,11.60
2023-05-10T05:47:00.762Z,11.59
2023-05-10T05:47:35.507Z,11.59
2023-05-10T05:48:07.732Z,11.60
2023-05-10T05:49:06.993Z,11.60
2023-05-10T05:49:39.315Z,11.61
2023-05-10T05:50:14.372Z,11.63
2023-05-10T05:50:46.839Z,11.63
2023-05-10T05:51:19.093Z,11.64
2023-05-10T05:52:37.253Z,11.67
2023-05-10T05:53:10.387Z,11.65
2023-05-10T05:53:42.496Z,11.66
2023-05-10T05:54:17.183Z,11.65
2023-05-10T05:54:49.335Z,11.64
2023-05-10T05:55:21.491Z,11.65
2023-05-10T05:55:58.337Z,11.65
2023-05-10T05:56:30.534Z,11.64
2023-05-10T05:57:02.733Z,11.64
2023-05-10T05:57:37.469Z,11.65
2023-05-10T05:58:09.688Z,11.64
2023-05-10T05:58:44.777Z,11.64
2023-05-10T05:59:16.878Z,11.64
2023-05-10T05:59:49.523Z,11.66
2023-05-10T06:00:25.270Z,11.65
2023-05-10T06:00:57.962Z,11.65
2023-05-10T06:01:35.516Z,11.65
2023-05-10T06:02:07.810Z,11.64
2023-05-10T06:02:40.214Z,11.64
2023-05-10T06:03:15.143Z,11.65
2023-05-10T06:03:47.618Z,11.66
2023-05-10T06:04:20.264Z,11.66
2023-05-10T06:04:54.967Z,11.66
2023-05-10T06:05:27.153Z,11.65
2023-05-10T06:06:01.856Z,11.66
2023-05-10T06:06:34.039Z,11.65
2023-05-10T06:07:06.259Z,11.66
2023-05-10T06:07:43.857Z,11.68
2023-05-10T06:08:16.133Z,11.67
2023-05-10T06:08:48.291Z,11.69
2023-05-10T06:09:24.909Z,11.72
2023-05-10T06:09:57.271Z,11.70
2023-05-10T06:10:29.407Z,11.72
2023-05-10T06:11:05.345Z,11.74
2023-05-10T06:11:37.992Z,11.74
2023-05-10T06:12:10.335Z,11.76
2023-05-10T06:12:47.719Z,11.77
2023-05-10T06:13:19.978Z,11.78
2023-05-10T06:13:52.188Z,11.79
2023-05-10T06:14:27.094Z,11.81
2023-05-10T06:14:59.375Z,11.83
2023-05-10T06:15:31.601Z,11.85
2023-05-10T06:16:06.725Z,11.87
2023-05-10T06:16:38.971Z,11.87
2023-05-10T06:17:11.158Z,11.90
2023-05-10T06:17:45.949Z,11.93
2023-05-10T06:18:18.556Z,11.95
2023-05-10T06:18:55.563Z,11.98
2023-05-10T06:19:28.490Z,11.98
2023-05-10T06:20:03.241Z,11.99
2023-05-10T06:20:38.157Z,12.01
2023-05-10T06:21:12.964Z,12.02
2023-05-10T06:21:45.118Z,12.03
2023-05-10T06:22:17.287Z,12.05
2023-05-10T06:22:54.595Z,12.07
2023-05-10T06:23:26.741Z,12.07
2023-05-10T06:24:01.528Z,12.10
2023-05-10T06:24:33.673Z,12.10
2023-05-10T06:25:09.719Z,12.14
2023-05-10T06:25:41.841Z,12.14
2023-05-10T06:26:16.545Z,12.17
2023-05-10T06:26:50.902Z,12.18
2023-05-10T06:27:25.850Z,12.20
2023-05-10T06:28:01.120Z,12.23
2023-05-10T06:28:34.653Z,12.25
2023-05-10T06:29:07.140Z,12.29
2023-05-10T06:29:43.004Z,12.32
2023-05-10T06:30:19.533Z,12.35
2023-05-10T06:30:54.316Z,12.38
2023-05-10T06:31:26.531Z,12.40
2023-05-10T06:32:01.261Z,12.43
2023-05-10T06:32:33.892Z,12.45
2023-05-10T06:33:08.709Z,12.47
2023-05-10T06:33:41.525Z,12.50
2023-05-10T06:34:14.673Z,12.52
2023-05-10T06:34:49.372Z,12.54
2023-05-10T06:35:21.789Z,12.56
2023-05-10T06:35:56.500Z,12.58
2023-05-10T06:36:28.750Z,12.61
2023-05-10T06:37:04.706Z,12.64
2023-05-10T06:37:36.874Z,12.66
2023-05-10T06:38:14.358Z,12.71
2023-05-10T06:38:46.619Z,12.74
2023-05-10T06:39:18.825Z,12.76
2023-05-10T06:39:53.525Z,12.78
2023-05-10T06:40:25.709Z,12.80
2023-05-10T06:40:58.288Z,12.83
2023-05-10T06:41:33.036Z,12.87
2023-05-10T06:42:06.378Z,12.90
2023-05-10T06:42:41.425Z,12.93
2023-05-10T06:43:13.615Z,12.97
2023-05-10T06:43:48.475Z,13.01
2023-05-10T06:44:20.612Z,13.03
2023-05-10T06:44:52.796Z,13.03
2023-05-10T06:45:27.512Z,13.07
2023-05-10T06:45:59.840Z,13.08
2023-05-10T06:46:32.170Z,13.10
2023-05-10T06:47:07.047Z,13.11
2023-05-10T06:47:39.636Z,13.14
2023-05-10T06:48:14.520Z,13.14
2023-05-10T06:48:46.716Z,13.15
2023-05-10T06:49:21.842Z,13.16
2023-05-10T06:49:54.129Z,13.17
2023-05-10T06:50:28.921Z,13.18
2023-05-10T06:51:01.122Z,13.17
2023-05-10T06:51:34.017Z,13.17
2023-05-10T06:52:08.925Z,13.15
2023-05-10T06:52:41.428Z,13.15
2023-05-10T06:53:18.929Z,13.17
2023-05-10T06:53:51.112Z,13.16
2023-05-10T06:54:24.269Z,13.16
2023-05-10T06:54:59.224Z,13.15
2023-05-10T06:55:31.427Z,13.17
2023-05-10T06:56:06.541Z,13.16
2023-05-10T06:56:38.690Z,13.15
2023-05-10T06:57:27.541Z,13.16
2023-05-10T06:58:03.773Z,13.11
2023-05-10T06:58:39.233Z,13.14
2023-05-10T06:59:11.421Z,13.16
2023-05-10T06:59:43.978Z,13.17
2023-05-10T07:00:19.911Z,13.19
2023-05-10T07:01:02.794Z,13.18
2023-05-10T07:01:37.721Z,13.17
2023-05-10T07:02:09.940Z,13.17
2023-05-10T07:02:44.744Z,13.17
2023-05-10T07:03:17.198Z,13.18
2023-05-10T07:03:52.205Z,13.20
2023-05-10T07:04:24.515Z,13.19
2023-05-10T07:05:01.632Z,13.19
2023-05-10T07:05:35.531Z,13.19
2023-05-10T07:06:21.732Z,13.19
2023-05-10T07:07:03.005Z,13.22
2023-05-10T07:07:37.734Z,13.21
2023-05-10T07:08:10.238Z,13.24
2023-05-10T07:08:44.945Z,13.26
2023-05-10T07:09:20.688Z,13.28
2023-05-10T07:09:55.878Z,13.29
2023-05-10T07:10:31.041Z,13.31
2023-05-10T07:11:04.658Z,13.32
2023-05-10T07:11:37.383Z,13.34
2023-05-10T07:12:14.171Z,13.39
2023-05-10T07:12:47.463Z,13.39
2023-05-10T07:13:22.353Z,13.42
2023-05-10T07:13:54.601Z,13.41
2023-05-10T07:14:26.875Z,13.42
2023-05-10T07:15:01.625Z,13.44
2023-05-10T07:15:37.042Z,13.44
2023-05-10T07:16:11.774Z,13.44
2023-05-10T07:16:44.110Z,13.46
2023-05-10T07:17:16.448Z,13.48
2023-05-10T07:17:53.215Z,13.49
2023-05-10T07:18:25.818Z,13.53
2023-05-10T07:18:58.024Z,13.56
2023-05-10T07:19:33.911Z,13.59
2023-05-10T07:20:07.919Z,13.62
2023-05-10T07:20:40.095Z,13.63
2023-05-10T07:21:15.206Z,13.65
2023-05-10T07:21:47.373Z,13.66
2023-05-10T07:22:22.166Z,13.67
2023-05-10T07:22:54.342Z,13.67
2023-05-10T07:23:26.614Z,13.70
2023-05-10T07:24:04.103Z,13.71
2023-05-10T07:24:36.324Z,13.73
2023-05-10T07:25:09.257Z,13.76
2023-05-10T07:25:44.193Z,13.77
2023-05-10T07:26:16.753Z,13.80
2023-05-10T07:26:51.715Z,13.80
2023-05-10T07:27:24.015Z,13.81
2023-05-10T07:27:58.777Z,13.83
2023-05-10T07:28:31.137Z,13.85
2023-05-10T07:29:03.626Z,13.89
2023-05-10T07:29:38.788Z,13.93
2023-05-10T07:30:12.484Z,13.96
2023-05-10T07:30:47.335Z,13.99
2023-05-10T07:31:19.507Z,14.00
2023-05-10T07:31:51.842Z,14.01
2023-05-10T07:32:26.877Z,14.02
2023-05-10T07:33:00.089Z,14.02